Terminal Aerodrome Forecast
Issued by NWS Mt. Holly, NJ

Home | Current Version | Previous Version | Text Only | Print | Product List | Glossary On
Versions: 1 2 3 4 5 6 7 8 9 10 11 12 13
000
FTUS41 KPHI 292300
TAFACY
TAF
KACY 292335Z 3000/3024 12004KT P6SM SCT250
     FM300800 00000KT 4SM BR SCT020
      TEMPO 3009/3013 BKN020
     FM301400 17005KT P6SM SCT025
     FM301800 17009KT P6SM FEW050=

USA.gov is the U.S. government's official web portal to all federal, state and local government web resources and services.